Time,TemperatureF,DewpointF,PressureIn,WindDirection,WindDirectionDegrees,WindSpeedMPH,WindSpeedGustMPH,Humidity,HourlyPrecipIn,Conditions,Clouds,dailyrainin,SolarRadiationWatts/m^2,SoftwareType,DateUTC
2013-08-12 00:02:00,61.0,60.0,-100.00,East,89,0.0,0.0,96,0.00,,,0.00,0.000000,,2013-08-12 05:02:00,
2013-08-12 00:11:00,61.0,60.0,-100.00,East,89,0.0,0.0,96,0.00,,,0.00,0.000000,,2013-08-12 05:11:00,
2013-08-12 00:20:00,58.0,57.0,-100.00,NW,307,0.0,0.0,97,0.00,,,0.00,0.000000,,2013-08-12 05:20:00,
2013-08-12 00:43:00,58.0,57.0,-100.00,NW,307,0.0,0.0,97,0.00,,,0.00,0.000000,,2013-08-12 05:43:00,
2013-08-12 00:52:00,58.0,57.0,-100.00,NW,307,0.0,0.0,97,0.00,,,0.00,0.000000,,2013-08-12 05:52:00,
2013-08-12 01:02:00,58.0,57.0,-100.00,NW,307,0.0,0.0,97,0.00,,,0.00,0.000000,,2013-08-12 06:02:00,
2013-08-12 01:11:00,58.0,57.0,-100.00,NW,307,0.0,0.0,97,0.00,,,0.00,0.000000,,2013-08-12 06:11:00,
2013-08-12 01:20:00,58.0,57.0,-100.00,NNW,347,0.0,4.0,96,0.00,,,0.00,0.000000,,2013-08-12 06:20:00,
2013-08-12 01:42:00,58.0,57.0,-100.00,NNW,347,0.0,4.0,96,0.00,,,0.00,0.000000,,2013-08-12 06:42:00,
2013-08-12 01:52:00,58.0,57.0,-100.00,NNW,347,0.0,4.0,96,0.00,,,0.00,0.000000,,2013-08-12 06:52:00,
2013-08-12 02:01:00,58.0,57.0,-100.00,NNW,347,0.0,4.0,96,0.00,,,0.00,0.000000,,2013-08-12 07:01:00,
2013-08-12 02:12:00,58.0,57.0,-100.00,NNW,347,0.0,4.0,96,0.00,,,0.00,0.000000,,2013-08-12 07:12:00,
2013-08-12 02:20:00,59.0,57.0,-100.00,NW,319,2.0,4.0,94,0.00,,,0.00,0.000000,,2013-08-12 07:20:00,
2013-08-12 02:43:00,59.0,57.0,-100.00,NW,319,2.0,4.0,94,0.00,,,0.00,0.000000,,2013-08-12 07:43:00,
2013-08-12 02:52:00,59.0,57.0,-100.00,NW,319,2.0,4.0,94,0.00,,,0.00,0.000000,,2013-08-12 07:52:00,
2013-08-12 03:02:00,59.0,57.0,-100.00,NW,319,2.0,4.0,94,0.00,,,0.00,0.000000,,2013-08-12 08:02:00,
2013-08-12 03:11:00,59.0,57.0,-100.00,NW,319,2.0,4.0,94,0.00,,,0.00,0.000000,,2013-08-12 08:11:00,
2013-08-12 03:20:00,58.0,57.0,-100.00,NW,321,3.0,5.0,95,0.00,,,0.00,0.000000,,2013-08-12 08:20:00,
2013-08-12 03:43:00,58.0,57.0,-100.00,NW,321,3.0,5.0,95,0.00,,,0.00,0.000000,,2013-08-12 08:43:00,
2013-08-12 03:53:00,58.0,57.0,-100.00,NW,321,3.0,5.0,95,0.00,,,0.00,0.000000,,2013-08-12 08:53:00,
2013-08-12 04:02:00,58.0,57.0,-100.00,NW,321,3.0,5.0,95,0.00,,,0.00,0.000000,,2013-08-12 09:02:00,
2013-08-12 04:11:00,58.0,57.0,-100.00,NW,321,3.0,5.0,95,0.00,,,0.00,0.000000,,2013-08-12 09:11:00,
2013-08-12 04:20:00,57.0,56.0,-100.00,NW,321,2.0,4.0,96,0.00,,,0.00,0.000000,,2013-08-12 09:20:00,
2013-08-12 04:43:00,57.0,56.0,-100.00,NW,321,2.0,4.0,96,0.00,,,0.00,0.000000,,2013-08-12 09:43:00,
2013-08-12 04:53:00,57.0,56.0,-100.00,NW,321,2.0,4.0,96,0.00,,,0.00,0.000000,,2013-08-12 09:53:00,
2013-08-12 05:02:00,57.0,56.0,-100.00,NW,321,2.0,4.0,96,0.00,,,0.00,0.000000,,2013-08-12 10:02:00,
2013-08-12 05:12:00,57.0,56.0,-100.00,NW,321,2.0,4.0,96,0.00,,,0.00,0.000000,,2013-08-12 10:12:00,
2013-08-12 05:20:00,54.0,53.0,-100.00,NW,325,2.0,4.0,97,0.00,,,0.00,0.000000,,2013-08-12 10:20:00,
2013-08-12 05:43:00,54.0,53.0,-100.00,NW,325,2.0,4.0,97,0.00,,,0.00,0.000000,,2013-08-12 10:43:00,
2013-08-12 05:52:00,54.0,53.0,-100.00,NW,325,2.0,4.0,97,0.00,,,0.00,0.000000,,2013-08-12 10:52:00,
2013-08-12 06:02:00,54.0,53.0,-100.00,NW,325,2.0,4.0,97,0.00,,,0.00,0.000000,,2013-08-12 11:02:00,
2013-08-12 06:12:00,54.0,53.0,-100.00,NW,325,2.0,4.0,97,0.00,,,0.00,0.000000,,2013-08-12 11:12:00,
2013-08-12 06:20:00,55.0,54.0,-100.00,WNW,302,1.0,5.0,97,0.00,,,0.00,1.000000,,2013-08-12 11:20:00,
2013-08-12 06:42:00,55.0,54.0,-100.00,WNW,302,1.0,5.0,97,0.00,,,0.00,1.000000,,2013-08-12 11:42:00,
2013-08-12 06:53:00,55.0,54.0,-100.00,WNW,302,1.0,5.0,97,0.00,,,0.00,1.000000,,2013-08-12 11:53:00,
2013-08-12 07:02:00,55.0,54.0,-100.00,WNW,302,1.0,5.0,97,0.00,,,0.00,1.000000,,2013-08-12 12:02:00,
2013-08-12 07:11:00,55.0,54.0,-100.00,WNW,302,1.0,5.0,97,0.00,,,0.00,1.000000,,2013-08-12 12:11:00,
2013-08-12 07:20:00,57.0,55.0,-100.00,NW,315,5.0,6.0,94,0.00,,,-99.99,73.000000,,2013-08-12 12:20:00,
2013-08-12 07:43:00,57.0,55.0,-100.00,NW,315,5.0,6.0,94,0.00,,,-99.99,73.000000,,2013-08-12 12:43:00,
2013-08-12 07:52:00,57.0,55.0,-100.00,NW,315,5.0,6.0,94,0.00,,,-99.99,73.000000,,2013-08-12 12:52:00,
2013-08-12 08:02:00,57.0,55.0,-100.00,NW,315,5.0,6.0,94,0.00,,,-99.99,73.000000,,2013-08-12 13:02:00,
2013-08-12 08:11:00,57.0,55.0,-100.00,NW,315,5.0,6.0,94,0.00,,,-99.99,73.000000,,2013-08-12 13:11:00,
2013-08-12 08:20:00,63.0,57.0,-100.00,NW,304,4.0,7.0,82,0.00,,,0.00,251.000000,,2013-08-12 13:20:00,
2013-08-12 08:43:00,63.0,57.0,-100.00,NW,304,4.0,7.0,82,0.00,,,0.00,251.000000,,2013-08-12 13:43:00,
2013-08-12 08:53:00,63.0,57.0,-100.00,NW,304,4.0,7.0,82,0.00,,,0.00,251.000000,,2013-08-12 13:53:00,
2013-08-12 09:02:00,63.0,57.0,-100.00,NW,304,4.0,7.0,82,0.00,,,0.00,251.000000,,2013-08-12 14:02:00,
2013-08-12 09:11:00,63.0,57.0,-100.00,NW,304,4.0,7.0,82,0.00,,,0.00,251.000000,,2013-08-12 14:11:00,
2013-08-12 09:20:00,69.0,58.0,-100.00,NW,324,5.0,9.0,68,0.00,,,0.00,451.000000,,2013-08-12 14:20:00,
2013-08-12 09:42:00,69.0,58.0,-100.00,NW,324,5.0,9.0,68,0.00,,,0.00,451.000000,,2013-08-12 14:42:00,
2013-08-12 09:53:00,69.0,58.0,-100.00,NW,324,5.0,9.0,68,0.00,,,0.00,451.000000,,2013-08-12 14:53:00,
2013-08-12 10:02:00,69.0,58.0,-100.00,NW,324,5.0,9.0,68,0.00,,,0.00,451.000000,,2013-08-12 15:02:00,
2013-08-12 10:11:00,69.0,58.0,-100.00,NW,324,5.0,9.0,68,0.00,,,0.00,451.000000,,2013-08-12 15:11:00,
2013-08-12 10:20:00,72.0,56.0,-100.00,NW,305,7.0,12.0,58,0.00,,,0.00,639.000000,,2013-08-12 15:20:00,
2013-08-12 10:43:00,72.0,56.0,-100.00,NW,305,7.0,12.0,58,0.00,,,0.00,639.000000,,2013-08-12 15:43:00,
2013-08-12 10:52:00,72.0,56.0,-100.00,NW,305,7.0,12.0,58,0.00,,,0.00,639.000000,,2013-08-12 15:52:00,
2013-08-12 11:01:00,72.0,56.0,-100.00,NW,305,7.0,12.0,58,0.00,,,0.00,639.000000,,2013-08-12 16:01:00,
2013-08-12 11:11:00,72.0,56.0,-100.00,NW,305,7.0,12.0,58,0.00,,,0.00,639.000000,,2013-08-12 16:11:00,
2013-08-12 11:20:00,74.0,53.0,-100.00,NW,318,9.0,15.0,48,0.00,,,0.00,774.000000,,2013-08-12 16:20:00,
2013-08-12 11:43:00,74.0,53.0,-100.00,NW,318,9.0,15.0,48,0.00,,,0.00,774.000000,,2013-08-12 16:43:00,
2013-08-12 11:53:00,74.0,53.0,-100.00,NW,318,9.0,15.0,48,0.00,,,0.00,774.000000,,2013-08-12 16:53:00,
2013-08-12 12:02:00,74.0,53.0,-100.00,NW,318,9.0,15.0,48,0.00,,,0.00,774.000000,,2013-08-12 17:02:00,
2013-08-12 12:11:00,74.0,53.0,-100.00,NW,318,9.0,15.0,48,0.00,,,0.00,774.000000,,2013-08-12 17:11:00,
2013-08-12 12:20:00,76.0,53.0,-100.00,NNW,333,8.0,20.0,45,0.00,,,0.00,884.000000,,2013-08-12 17:20:00,
2013-08-12 12:43:00,76.0,53.0,-100.00,NNW,333,8.0,20.0,45,0.00,,,0.00,884.000000,,2013-08-12 17:43:00,
2013-08-12 12:52:00,76.0,53.0,-100.00,NNW,333,8.0,20.0,45,0.00,,,0.00,884.000000,,2013-08-12 17:52:00,
2013-08-12 13:02:00,76.0,53.0,-100.00,NNW,333,8.0,20.0,45,0.00,,,0.00,884.000000,,2013-08-12 18:02:00,
2013-08-12 13:11:00,76.0,53.0,-100.00,NNW,333,8.0,20.0,45,0.00,,,0.00,884.000000,,2013-08-12 18:11:00,
2013-08-12 13:20:00,77.0,53.0,-100.00,NW,304,9.0,16.0,43,0.00,,,0.00,949.000000,,2013-08-12 18:20:00,
2013-08-12 13:43:00,77.0,53.0,-100.00,NW,304,9.0,16.0,43,0.00,,,0.00,949.000000,,2013-08-12 18:43:00,
2013-08-12 13:52:00,77.0,53.0,-100.00,NW,304,9.0,16.0,43,0.00,,,0.00,949.000000,,2013-08-12 18:52:00,
2013-08-12 14:02:00,77.0,53.0,-100.00,NW,304,9.0,16.0,43,0.00,,,0.00,949.000000,,2013-08-12 19:02:00,
2013-08-12 14:11:00,77.0,53.0,-100.00,NW,304,9.0,16.0,43,0.00,,,0.00,949.000000,,2013-08-12 19:11:00,
2013-08-12 14:20:00,78.0,52.0,-100.00,NW,322,8.0,15.0,40,0.00,,,0.00,880.000000,,2013-08-12 19:20:00,
2013-08-12 14:43:00,78.0,52.0,-100.00,NW,322,8.0,15.0,40,0.00,,,0.00,880.000000,,2013-08-12 19:43:00,
2013-08-12 14:52:00,78.0,52.0,-100.00,NW,322,8.0,15.0,40,0.00,,,0.00,880.000000,,2013-08-12 19:52:00,
2013-08-12 15:02:00,78.0,52.0,-100.00,NW,322,8.0,15.0,40,0.00,,,0.00,880.000000,,2013-08-12 20:02:00,
2013-08-12 15:11:00,78.0,52.0,-100.00,NW,322,8.0,15.0,40,0.00,,,0.00,880.000000,,2013-08-12 20:11:00,
2013-08-12 15:20:00,79.0,52.0,-100.00,NW,323,8.0,18.0,39,0.00,,,0.00,878.000000,,2013-08-12 20:20:00,
2013-08-12 15:42:00,79.0,52.0,-100.00,NW,323,8.0,18.0,39,0.00,,,0.00,878.000000,,2013-08-12 20:42:00,
2013-08-12 15:52:00,79.0,52.0,-100.00,NW,323,8.0,18.0,39,0.00,,,0.00,878.000000,,2013-08-12 20:52:00,
2013-08-12 16:01:00,79.0,52.0,-100.00,NW,323,8.0,18.0,39,0.00,,,0.00,878.000000,,2013-08-12 21:01:00,
2013-08-12 16:12:00,79.0,52.0,-100.00,NW,323,8.0,18.0,39,0.00,,,0.00,878.000000,,2013-08-12 21:12:00,
2013-08-12 16:20:00,79.0,52.0,-100.00,WNW,291,8.0,16.0,39,0.00,,,0.00,667.000000,,2013-08-12 21:20:00,
2013-08-12 16:43:00,79.0,52.0,-100.00,WNW,291,8.0,16.0,39,0.00,,,0.00,667.000000,,2013-08-12 21:43:00,
2013-08-12 16:52:00,79.0,52.0,-100.00,WNW,291,8.0,16.0,39,0.00,,,0.00,667.000000,,2013-08-12 21:52:00,
2013-08-12 17:02:00,79.0,52.0,-100.00,WNW,291,8.0,16.0,39,0.00,,,0.00,667.000000,,2013-08-12 22:02:00,
2013-08-12 17:11:00,79.0,52.0,-100.00,WNW,291,8.0,16.0,39,0.00,,,0.00,667.000000,,2013-08-12 22:11:00,
2013-08-12 17:20:00,77.0,51.0,-100.00,NNW,333,7.0,14.0,41,0.00,,,0.00,480.000000,,2013-08-12 22:20:00,
2013-08-12 17:43:00,77.0,51.0,-100.00,NNW,333,7.0,14.0,41,0.00,,,0.00,480.000000,,2013-08-12 22:43:00,
2013-08-12 17:53:00,77.0,51.0,-100.00,NNW,333,7.0,14.0,41,0.00,,,0.00,480.000000,,2013-08-12 22:53:00,
2013-08-12 18:02:00,77.0,51.0,-100.00,NNW,333,7.0,14.0,41,0.00,,,0.00,480.000000,,2013-08-12 23:02:00,
2013-08-12 18:11:00,77.0,51.0,-100.00,NNW,333,7.0,14.0,41,0.00,,,0.00,480.000000,,2013-08-12 23:11:00,
2013-08-12 18:20:00,73.0,53.0,-100.00,NNW,339,9.0,15.0,50,0.00,,,0.00,351.000000,,2013-08-12 23:20:00,
2013-08-12 18:54:00,73.0,53.0,-100.00,NNW,339,9.0,15.0,50,0.00,,,0.00,351.000000,,2013-08-12 23:54:00,
2013-08-12 19:03:00,73.0,53.0,-100.00,NNW,339,9.0,15.0,50,0.00,,,0.00,351.000000,,2013-08-13 00:03:00,
2013-08-12 19:12:00,73.0,53.0,-100.00,NNW,339,9.0,15.0,50,0.00,,,0.00,351.000000,,2013-08-13 00:12:00,
2013-08-12 19:20:00,70.0,55.0,-100.00,NNW,336,3.0,11.0,58,0.00,,,0.00,145.000000,,2013-08-13 00:20:00,
2013-08-12 19:54:00,70.0,55.0,-100.00,NNW,336,3.0,11.0,58,0.00,,,0.00,145.000000,,2013-08-13 00:54:00,
2013-08-12 20:03:00,70.0,55.0,-100.00,NNW,336,3.0,11.0,58,0.00,,,0.00,145.000000,,2013-08-13 01:03:00,
2013-08-12 20:13:00,70.0,55.0,-100.00,NNW,336,3.0,11.0,58,0.00,,,0.00,145.000000,,2013-08-13 01:13:00,
2013-08-12 20:20:00,64.0,57.0,-100.00,NNW,332,0.0,4.0,77,0.00,,,0.00,39.000000,,2013-08-13 01:20:00,
2013-08-12 20:55:00,64.0,57.0,-100.00,NNW,332,0.0,4.0,77,0.00,,,0.00,39.000000,,2013-08-13 01:55:00,
2013-08-12 21:02:00,64.0,57.0,-100.00,NNW,332,0.0,4.0,77,0.00,,,0.00,39.000000,,2013-08-13 02:02:00,
2013-08-12 21:11:00,64.0,57.0,-100.00,NNW,332,0.0,4.0,77,0.00,,,0.00,39.000000,,2013-08-13 02:11:00,
2013-08-12 21:20:00,58.0,55.0,-100.00,NW,311,0.0,0.0,91,0.00,,,0.00,1.000000,,2013-08-13 02:20:00,
2013-08-12 22:20:00,55.0,54.0,-100.00,NNW,329,0.0,3.0,95,0.00,,,0.00,0.000000,,2013-08-13 03:20:00,
2013-08-12 23:20:00,59.0,54.0,-100.00,NE,47,3.0,6.0,84,0.00,,,0.00,0.000000,,2013-08-13 04:20:00,
2013-08-12 23:53:00,59.0,54.0,-100.00,NE,47,3.0,6.0,84,0.00,,,0.00,0.000000,,2013-08-13 04:53:00,